createdAt,value
2022-08-07T00:01:01.018Z,71.38
2022-08-07T00:06:29.468Z,72.23
2022-08-07T00:11:35.177Z,72.48
2022-08-07T00:16:49.571Z,73.33
2022-08-07T00:21:56.728Z,73.89
2022-08-07T00:27:07.502Z,75.04
2022-08-07T00:32:13.438Z,75.60
2022-08-07T00:37:16.060Z,75.58
2022-08-07T00:42:17.542Z,75.21
2022-08-07T00:48:09.083Z,75.98
2022-08-07T00:52:40.240Z,76.00
2022-08-07T00:57:44.459Z,77.03
2022-08-07T01:02:57.507Z,78.29
2022-08-07T01:07:59.536Z,78.17
2022-08-07T01:13:01.369Z,79.68
2022-08-07T01:18:04.598Z,79.58
2022-08-07T01:23:12.237Z,80.94
2022-08-07T01:28:14.488Z,80.19
2022-08-07T01:33:16.668Z,79.75
2022-08-07T01:38:25.614Z,79.89
2022-08-07T01:43:34.591Z,81.81
2022-08-07T01:48:42.157Z,81.83
2022-08-07T01:54:12.540Z,83.23
2022-08-07T01:59:15.741Z,83.03
2022-08-07T02:04:24.021Z,84.00
2022-08-07T02:09:51.802Z,82.88
2022-08-07T02:14:52.746Z,84.49
2022-08-07T02:20:07.651Z,83.48
2022-08-07T02:25:18.819Z,83.69
2022-08-07T02:30:20.335Z,84.81
2022-08-07T02:36:29.576Z,86.29
2022-08-07T02:40:46.598Z,85.68
2022-08-07T02:45:58.548Z,86.12
2022-08-07T02:51:05.177Z,86.99
2022-08-07T02:56:17.346Z,87.41
2022-08-07T03:01:36.068Z,87.17
2022-08-07T03:06:42.107Z,87.28
2022-08-07T03:11:52.590Z,87.55
2022-08-07T03:16:59.602Z,87.94
2022-08-07T03:22:05.942Z,88.62
2022-08-07T03:27:09.113Z,88.72
2022-08-07T03:32:13.092Z,88.62
2022-08-07T03:37:18.105Z,89.52
2022-08-07T03:42:20.139Z,89.71
2022-08-07T03:47:22.671Z,89.70
2022-08-07T03:52:27.392Z,89.86
2022-08-07T03:58:34.295Z,90.18
2022-08-07T04:02:51.286Z,90.17
2022-08-07T04:07:58.343Z,90.63
2022-08-07T04:13:02.613Z,90.72
2022-08-07T04:18:56.445Z,91.13
2022-08-07T04:23:43.627Z,91.10
2022-08-07T04:28:47.693Z,91.15
2022-08-07T04:33:54.915Z,91.13
2022-08-07T04:38:58.359Z,90.94
2022-08-07T04:44:14.444Z,90.36
2022-08-07T04:49:24.806Z,89.97
2022-08-07T04:54:50.454Z,90.05
2022-08-07T05:00:13.072Z,89.64
2022-08-07T05:05:53.648Z,89.48
2022-08-07T05:10:49.141Z,88.78
2022-08-07T05:15:53.587Z,86.95
2022-08-07T05:20:57.556Z,86.60
2022-08-07T05:26:13.071Z,86.36
2022-08-07T05:31:21.868Z,85.19
2022-08-07T05:36:30.275Z,82.52
2022-08-07T05:42:02.322Z,80.34
2022-08-07T05:46:55.300Z,70.23
2022-08-07T05:51:56.644Z,61.75
2022-08-07T05:56:58.900Z,51.29
2022-08-07T06:02:00.910Z,49.94
2022-08-07T06:07:05.837Z,44.79
2022-08-07T06:12:07.707Z,47.01
2022-08-07T06:17:10.157Z,46.51
2022-08-07T06:22:23.899Z,45.79
2022-08-07T06:27:54.408Z,40.01
2022-08-07T06:32:50.078Z,42.68
2022-08-07T06:37:52.834Z,42.52
2022-08-07T06:42:56.209Z,41.57
2022-08-07T06:47:58.621Z,39.67
2022-08-07T06:53:04.103Z,40.85
2022-08-07T06:58:10.183Z,40.64
2022-08-07T07:03:14.564Z,42.92
2022-08-07T07:08:26.540Z,44.67
2022-08-07T07:13:55.788Z,39.05
2022-08-07T07:18:57.484Z,33.02
2022-08-07T07:24:09.488Z,34.51
2022-08-07T07:29:40.082Z,35.06
2022-08-07T07:34:39.641Z,33.58
2022-08-07T07:39:52.462Z,35.50
2022-08-07T07:44:57.894Z,35.54
2022-08-07T07:50:36.533Z,37.36
2022-08-07T07:55:21.913Z,33.06
2022-08-07T08:00:29.448Z,32.08
2022-08-07T08:05:32.230Z,31.28
2022-08-07T08:10:44.978Z,36.36
2022-08-07T08:15:58.661Z,33.29
2022-08-07T08:21:01.646Z,34.66
2022-08-07T08:26:23.740Z,31.79
2022-08-07T08:32:17.569Z,31.39
2022-08-07T08:36:57.810Z,27.24
2022-08-07T08:42:03.640Z,25.75
2022-08-07T08:47:10.064Z,26.37
2022-08-07T08:52:35.947Z,28.30
2022-08-07T08:57:49.462Z,26.24
2022-08-07T09:03:00.926Z,29.57
2022-08-07T09:08:09.960Z,28.99
2022-08-07T09:13:20.117Z,24.40
2022-08-07T09:19:50.982Z,23.98
2022-08-07T09:24:59.037Z,25.13
2022-08-07T09:30:08.813Z,28.30
2022-08-07T09:36:05.296Z,23.35
2022-08-07T09:40:58.849Z,22.95
2022-08-07T09:47:50.040Z,20.74
2022-08-07T09:52:16.043Z,22.60
2022-08-07T09:57:46.825Z,22.16
2022-08-07T10:03:08.501Z,21.36
2022-08-07T10:08:37.736Z,23.09
2022-08-07T10:14:00.552Z,20.90
2022-08-07T10:19:12.602Z,20.88
2022-08-07T10:24:46.073Z,21.67
2022-08-07T10:30:00.589Z,21.26
2022-08-07T10:35:25.814Z,21.35
2022-08-07T10:40:30.043Z,22.28
2022-08-07T10:45:57.395Z,21.59
2022-08-07T10:51:16.742Z,22.39
2022-08-07T10:56:49.109Z,22.21
2022-08-07T11:02:12.365Z,21.44
2022-08-07T11:07:59.589Z,23.00
2022-08-07T11:13:07.337Z,24.14
2022-08-07T11:18:38.667Z,21.25
2022-08-07T11:24:01.023Z,21.49
2022-08-07T11:29:13.276Z,21.53
2022-08-07T11:34:40.866Z,21.95
2022-08-07T11:40:03.719Z,23.77
2022-08-07T11:45:20.579Z,22.86
2022-08-07T11:50:35.354Z,25.67
2022-08-07T11:56:12.038Z,23.58
2022-08-07T12:01:58.666Z,24.10
2022-08-07T12:07:01.034Z,25.67
2022-08-07T12:12:12.427Z,25.57
2022-08-07T12:17:19.749Z,26.71
2022-08-07T12:22:55.901Z,25.86
2022-08-07T12:28:09.522Z,26.67
2022-08-07T12:33:23.146Z,25.98
2022-08-07T12:38:38.664Z,26.33
2022-08-07T12:44:02.255Z,25.35
2022-08-07T12:49:25.860Z,26.55
2022-08-07T12:54:39.202Z,26.01
2022-08-07T12:59:54.535Z,26.76
2022-08-07T13:05:15.135Z,25.30
2022-08-07T13:10:39.438Z,26.28
2022-08-07T13:15:48.592Z,26.17
2022-08-07T13:21:23.560Z,26.77
2022-08-07T13:26:46.400Z,27.63
2022-08-07T13:32:00.055Z,26.26
2022-08-07T13:37:19.792Z,26.63
2022-08-07T13:42:24.828Z,27.77
2022-08-07T13:47:27.781Z,27.48
2022-08-07T13:52:49.730Z,27.56
2022-08-07T13:58:27.880Z,28.47
2022-08-07T14:04:05.364Z,27.76
2022-08-07T14:08:59.313Z,27.49
2022-08-07T14:14:08.373Z,28.25
2022-08-07T14:20:43.297Z,27.89
2022-08-07T14:24:48.280Z,27.85
2022-08-07T14:30:05.871Z,27.55
2022-08-07T14:35:45.378Z,28.28
2022-08-07T14:40:40.370Z,27.64
2022-08-07T14:45:49.209Z,27.55
2022-08-07T14:50:53.222Z,27.88
2022-08-07T14:55:56.250Z,29.02
2022-08-07T15:01:21.312Z,28.18
2022-08-07T15:06:25.498Z,27.77
2022-08-07T15:11:54.456Z,29.03
2022-08-07T15:28:01.951Z,28.31
2022-08-07T15:33:19.196Z,29.38
2022-08-07T15:38:30.755Z,29.47
2022-08-07T15:43:53.869Z,28.77
2022-08-07T15:49:11.773Z,29.39
2022-08-07T15:54:15.200Z,29.26
2022-08-07T15:59:20.080Z,30.59
2022-08-07T16:04:41.341Z,30.32
2022-08-07T16:09:53.937Z,30.69
2022-08-07T16:15:54.412Z,30.98
2022-08-07T16:21:43.941Z,29.46
2022-08-07T16:26:14.434Z,30.77
2022-08-07T16:31:51.046Z,30.70
2022-08-07T16:37:01.994Z,30.69
2022-08-07T16:42:13.409Z,30.96
2022-08-07T16:52:51.686Z,30.79
2022-08-07T16:58:03.734Z,30.67
2022-08-07T17:03:11.317Z,30.38
2022-08-07T17:09:04.206Z,30.98
2022-08-07T17:14:17.957Z,31.43
2022-08-07T17:20:02.681Z,31.51
2022-08-07T17:24:50.637Z,31.79
2022-08-07T17:30:14.822Z,31.16
2022-08-07T17:35:51.435Z,31.61
2022-08-07T17:41:12.497Z,32.69
2022-08-07T17:46:41.777Z,32.46
2022-08-07T17:52:00.530Z,32.91
2022-08-07T17:57:18.515Z,32.82
2022-08-07T18:02:41.288Z,32.75
2022-08-07T18:07:58.166Z,34.14
2022-08-07T18:13:20.377Z,34.61
2022-08-07T18:18:47.542Z,36.43
2022-08-07T18:24:07.201Z,34.97
2022-08-07T18:30:07.342Z,36.39
2022-08-07T18:35:00.647Z,37.10
2022-08-07T18:40:42.491Z,37.30
2022-08-07T18:46:22.124Z,39.78
2022-08-07T18:51:12.413Z,38.51
2022-08-07T18:56:31.874Z,39.88
2022-08-07T19:02:19.458Z,40.36
2022-08-07T19:06:58.038Z,39.34
2022-08-07T19:12:07.860Z,41.14
2022-08-07T19:18:01.778Z,41.54
2022-08-07T19:22:47.133Z,41.54
2022-08-07T19:28:56.654Z,41.66
2022-08-07T19:33:15.347Z,43.07
2022-08-07T19:38:19.535Z,42.08
2022-08-07T19:43:48.612Z,43.14
2022-08-07T19:48:54.005Z,42.47
2022-08-07T19:54:30.987Z,42.57
2022-08-07T19:59:21.366Z,44.11
2022-08-07T20:04:31.466Z,44.90
2022-08-07T20:10:33.488Z,45.12
2022-08-07T20:15:09.717Z,44.88
2022-08-07T20:20:27.113Z,45.16
2022-08-07T20:25:32.493Z,46.46
2022-08-07T20:30:46.892Z,48.00
2022-08-07T20:35:54.344Z,49.02
2022-08-07T20:41:05.545Z,50.33
2022-08-07T20:46:28.619Z,51.13
2022-08-07T20:51:29.852Z,51.92
2022-08-07T20:56:33.531Z,52.19
2022-08-07T21:01:45.309Z,52.68
2022-08-07T21:06:58.273Z,55.45
2022-08-07T21:12:08.128Z,54.54
2022-08-07T21:18:06.472Z,53.24
2022-08-07T21:22:51.158Z,52.99
2022-08-07T21:28:09.935Z,54.75
2022-08-07T21:33:20.189Z,55.31
2022-08-07T21:38:44.409Z,54.41
2022-08-07T21:43:57.020Z,54.99
2022-08-07T21:49:14.812Z,56.17
2022-08-07T21:54:48.353Z,56.16
2022-08-07T22:00:04.093Z,54.43
2022-08-07T22:05:12.237Z,53.49
2022-08-07T22:10:24.967Z,53.98
2022-08-07T22:16:43.568Z,53.99
2022-08-07T22:21:16.278Z,54.14
2022-08-07T22:26:23.702Z,54.54
2022-08-07T22:31:56.457Z,54.95
2022-08-07T22:37:16.550Z,56.46
2022-08-07T22:42:25.648Z,57.27
2022-08-07T22:47:52.108Z,57.73
2022-08-07T22:53:15.135Z,59.33
2022-08-07T22:58:16.872Z,60.85
2022-08-07T23:03:58.031Z,61.63
2022-08-07T23:10:05.362Z,61.54
2022-08-07T23:14:41.787Z,61.51
2022-08-07T23:20:51.047Z,61.70
2022-08-07T23:25:53.682Z,62.65
2022-08-07T23:31:18.501Z,63.59
2022-08-07T23:36:36.570Z,64.49
2022-08-07T23:42:04.997Z,65.03
2022-08-07T23:47:46.505Z,65.42
2022-08-07T23:53:08.425Z,66.05
2022-08-07T23:58:18.727Z,66.44
